VOZ580 YPAD-YSCB
Flight info
| Callsign | VOZ580 |
|---|---|
| Flight time | N/A |
| Altitude | 37000 |
| Route | BENDO3/05 BENDO H36 KACEY POLI9A/35 |
| Aircraft | B738/M-SAE3DGHIM1RWZ/LB1 |
Departure
| Time | N/A |
|---|---|
| Airport | Adelaide International Airport (YPAD) |
Arrival
| Time | 2026-05-01 09:43 |
|---|---|
| Airport | Canberra Airport (YSCB) |
| Time | Latitude | Longitude | Altitude | Speed | Heading |
|---|---|---|---|---|---|
| 2026-05-01 09:40 | -35.45859 | 149.19547 | 5389 ft | 200 kts | 357° |
| 2026-05-01 09:40 | -35.43052 | 149.19386 | 4660 ft | 201 kts | 4° |
| 2026-05-01 09:40 | -35.41687 | 149.19433 | 4319 ft | 193 kts | 2° |
| 2026-05-01 09:41 | -35.40377 | 149.19434 | 3933 ft | 184 kts | 3° |
| 2026-05-01 09:41 | -35.37911 | 149.19448 | 3184 ft | 169 kts | 1° |
| 2026-05-01 09:41 | -35.36777 | 149.19447 | 2966 ft | 154 kts | 2° |
| 2026-05-01 09:42 | -35.35743 | 149.19448 | 2748 ft | 145 kts | 2° |
| 2026-05-01 09:42 | -35.34759 | 149.19435 | 2500 ft | 141 kts | 2° |
| 2026-05-01 09:42 | -35.32691 | 149.19432 | 2189 ft | 152 kts | 4° |
| 2026-05-01 09:43 | -35.30711 | 149.19443 | 1879 ft | 119 kts | 359° |
| 2026-05-01 09:43 | -35.30094 | 149.19443 | 1878 ft | 59 kts | 360° |
| 2026-05-01 09:43 | -35.29820 | 149.19443 | 1878 ft | 34 kts | 0° |
| 2026-05-01 09:44 | -35.29583 | 149.19300 | 1878 ft | 18 kts | 256° |
| 2026-05-01 09:44 | -35.29681 | 149.19242 | 1878 ft | 17 kts | 179° |
| 2026-05-01 09:44 | -35.29800 | 149.19244 | 1878 ft | 18 kts | 179° |
| 2026-05-01 09:45 | -35.29947 | 149.19244 | 1875 ft | 25 kts | 180° |
| 2026-05-01 09:45 | -35.30376 | 149.19239 | 1878 ft | 33 kts | 179° |
| 2026-05-01 09:45 | -35.30574 | 149.19241 | 1879 ft | 22 kts | 181° |
| 2026-05-01 09:46 | -35.30646 | 149.19186 | 1879 ft | 12 kts | 282° |
| 2026-05-01 09:46 | -35.30664 | 149.19119 | 1876 ft | 5 kts | 230° |
| 2026-05-01 09:46 | -35.30678 | 149.19098 | 1877 ft | 1 kts | 231° |